Time;durP1;ratioP1;P1;durP2;ratioP2;P2;SDS_P1;SDS_P2;PMS_P1;PMS_P2;Temp;Humidity;BMP_temperature;BMP_pressure;BME280_temperature;BME280_humidity;BME280_pressure;Samples;Min_cycle;Max_cycle;Signal;HPM_P1;HPM_P2
2022/12/18 05:00:36;;;;;;;60.07;27.20;;;-7.50;99.90;;;;;;5928054;23;20484;-70
2022/12/18 05:03:03;;;;;;;67.60;27.43;;;-7.40;99.90;;;;;;4965987;28;20472;-70
2022/12/18 05:05:29;;;;;;;57.40;26.17;;;-7.50;99.90;;;;;;4966425;28;20479;-70
2022/12/18 05:07:56;;;;;;;62.43;28.33;;;-7.40;99.90;;;;;;4965364;28;20869;-70
2022/12/18 05:10:23;;;;;;;51.50;25.23;;;-7.40;99.90;;;;;;4964306;28;20456;-70
2022/12/18 05:12:58;;;;;;;48.13;23.23;;;-7.50;99.90;;;;;;4946467;29;20457;-70
2022/12/18 05:15:27;;;;;;;61.90;24.63;;;-7.40;99.90;;;;;;4946871;29;20438;-70
2022/12/18 05:17:55;;;;;;;48.13;24.57;;;-7.40;99.90;;;;;;4946458;28;20501;-70
2022/12/18 05:20:22;;;;;;;46.50;21.90;;;-7.50;99.90;;;;;;4946351;28;20468;-70
2022/12/18 05:22:49;;;;;;;44.57;19.50;;;-7.50;99.90;;;;;;4947331;29;20444;-70
2022/12/18 05:25:16;;;;;;;47.27;20.27;;;-7.40;99.90;;;;;;4947031;29;20461;-70
2022/12/18 05:27:43;;;;;;;40.20;20.10;;;-7.50;99.90;;;;;;4946266;29;20465;-70
2022/12/18 05:30:10;;;;;;;40.60;18.30;;;-7.50;99.90;;;;;;4946451;29;20445;-70
2022/12/18 05:32:37;;;;;;;46.60;19.50;;;-7.50;99.90;;;;;;4947051;29;20997;-70
2022/12/18 05:35:08;;;;;;;38.53;18.20;;;-7.50;99.90;;;;;;4948054;28;20457;-70
2022/12/18 05:37:35;;;;;;;48.07;19.83;;;-7.50;99.90;;;;;;4948764;28;20453;-70
2022/12/18 05:40:02;;;;;;;44.57;20.17;;;-7.50;99.90;;;;;;4950405;29;20445;-70
2022/12/18 05:42:29;;;;;;;45.87;19.97;;;-7.50;99.90;;;;;;4950076;28;20473;-70
2022/12/18 05:44:55;;;;;;;43.57;19.10;;;-7.50;99.90;;;;;;4949843;29;20467;-70
2022/12/18 05:47:22;;;;;;;43.87;19.63;;;-7.50;99.90;;;;;;4950254;29;20461;-70
2022/12/18 05:49:49;;;;;;;43.50;19.00;;;-7.50;99.90;;;;;;4950820;29;20462;-70
2022/12/18 05:52:17;;;;;;;49.90;20.70;;;-7.50;99.90;;;;;;4950120;28;20481;-70
2022/12/18 05:54:44;;;;;;;43.27;18.23;;;-7.50;99.90;;;;;;4949844;28;20881;-70
2022/12/18 05:57:11;;;;;;;43.03;20.20;;;-7.50;99.90;;;;;;4949283;29;20457;-71
2022/12/18 05:59:37;;;;;;;49.00;19.13;;;-7.40;99.90;;;;;;4950386;29;20501;-71
2022/12/18 06:02:04;;;;;;;43.37;19.50;;;-7.40;99.90;;;;;;4950522;28;21084;-69
2022/12/18 06:04:31;;;;;;;44.80;19.60;;;-7.30;99.90;;;;;;4950196;29;20457;-69
2022/12/18 06:06:58;;;;;;;49.67;19.10;;;-7.30;99.90;;;;;;4949079;29;20828;-68
2022/12/18 06:09:26;;;;;;;49.53;20.33;;;-7.20;99.90;;;;;;4949568;28;21096;-69
2022/12/18 06:11:53;;;;;;;40.83;18.30;;;-7.20;99.90;;;;;;4949303;28;20492;-68
2022/12/18 06:14:20;;;;;;;45.50;18.80;;;-7.20;99.90;;;;;;4949727;28;20461;-69
2022/12/18 06:16:47;;;;;;;45.43;19.30;;;-7.20;99.90;;;;;;4949076;28;20464;-62
2022/12/18 06:19:17;;;;;;;44.93;18.80;;;-7.20;99.90;;;;;;4949813;29;20499;-61
2022/12/18 06:21:44;;;;;;;44.97;18.07;;;-7.30;99.90;;;;;;4949312;28;20924;-71
2022/12/18 06:24:10;;;;;;;46.93;18.77;;;-7.30;99.90;;;;;;4949697;28;20464;-71
2022/12/18 06:26:39;;;;;;;40.17;18.17;;;-7.30;99.90;;;;;;4948717;29;20517;-71
2022/12/18 06:29:06;;;;;;;39.00;19.20;;;-7.30;99.90;;;;;;4949685;29;20465;-71
2022/12/18 06:31:33;;;;;;;40.17;18.00;;;-7.40;99.90;;;;;;4949462;28;20492;-71
2022/12/18 06:34:02;;;;;;;46.07;18.47;;;-7.30;99.90;;;;;;4949643;29;20469;-71
2022/12/18 06:36:29;;;;;;;37.40;18.70;;;-7.30;99.90;;;;;;4948988;29;20516;-71
2022/12/18 06:38:56;;;;;;;47.13;21.60;;;-7.30;99.90;;;;;;4948955;28;20497;-71
2022/12/18 06:41:23;;;;;;;39.37;17.73;;;-7.30;99.90;;;;;;4948665;28;21033;-71
2022/12/18 06:43:51;;;;;;;45.60;19.33;;;-7.30;99.90;;;;;;4949341;29;20453;-71
2022/12/18 06:46:18;;;;;;;41.50;17.90;;;-7.30;99.90;;;;;;4948405;28;21016;-73
2022/12/18 06:48:49;;;;;;;40.60;18.80;;;-7.30;99.90;;;;;;4949075;29;20452;-73
2022/12/18 06:51:18;;;;;;;44.77;19.23;;;-7.30;99.90;;;;;;4948418;28;20474;-73
2022/12/18 06:53:44;;;;;;;47.10;18.87;;;-7.30;99.90;;;;;;4949091;29;20462;-73
2022/12/18 06:56:11;;;;;;;45.40;19.20;;;-7.30;99.90;;;;;;4948753;29;20465;-73
2022/12/18 06:58:39;;;;;;;56.67;21.00;;;-7.30;99.90;;;;;;4950387;29;20497;-72
2022/12/18 07:01:09;;;;;;;40.77;18.40;;;-7.30;99.90;;;;;;4949177;28;21027;-72
2022/12/18 07:03:36;;;;;;;38.03;18.43;;;-7.30;99.90;;;;;;4949483;29;21158;-73
2022/12/18 07:06:03;;;;;;;48.50;19.40;;;-7.30;99.90;;;;;;4948479;28;20464;-72
2022/12/18 07:08:30;;;;;;;42.27;19.50;;;-7.30;99.90;;;;;;4949098;29;20466;-76
2022/12/18 07:10:57;;;;;;;54.33;22.02;;;-7.30;99.90;;;;;;4949139;28;20769;-76
2022/12/18 07:13:24;;;;;;;46.03;21.37;;;-7.10;99.90;;;;;;4949214;28;20217;-77
2022/12/18 07:15:51;;;;;;;48.67;20.23;;;-7.00;99.90;;;;;;4950379;28;20950;-78
2022/12/18 07:18:19;;;;;;;45.97;20.07;;;-7.00;99.90;;;;;;4949041;29;20965;-76
2022/12/18 07:20:46;;;;;;;44.53;19.13;;;-7.00;99.90;;;;;;4949142;28;21142;-70
2022/12/18 07:23:13;;;;;;;51.77;18.83;;;-7.10;99.90;;;;;;4951409;29;20647;-77
2022/12/18 07:25:40;;;;;;;44.03;19.53;;;-7.10;99.90;;;;;;4948015;29;20501;-75
2022/12/18 07:28:07;;;;;;;40.53;16.83;;;-7.10;99.90;;;;;;4948877;29;20484;-73
2022/12/18 07:30:34;;;;;;;45.80;18.27;;;-7.10;99.90;;;;;;4949132;28;20862;-73
2022/12/18 07:33:00;;;;;;;47.57;19.57;;;-7.10;99.90;;;;;;4948552;28;20453;-73
2022/12/18 07:35:29;;;;;;;41.80;18.73;;;-7.10;99.90;;;;;;4948620;29;20996;-73
2022/12/18 07:37:55;;;;;;;42.77;17.87;;;-7.10;99.90;;;;;;4948060;28;20484;-74
2022/12/18 07:40:22;;;;;;;44.90;18.63;;;-7.10;99.90;;;;;;4948379;28;21021;-73
2022/12/18 07:42:49;;;;;;;42.77;19.10;;;-7.00;99.90;;;;;;4948706;29;20454;-73
2022/12/18 07:45:16;;;;;;;41.03;17.70;;;-7.00;99.90;;;;;;4948584;29;20457;-73
2022/12/18 07:47:42;;;;;;;44.73;18.67;;;-7.00;99.90;;;;;;4948099;29;20461;-74
2022/12/18 07:50:09;;;;;;;44.40;18.00;;;-7.00;99.90;;;;;;4948341;29;20450;-73
2022/12/18 07:52:38;;;;;;;49.40;19.87;;;-6.90;99.90;;;;;;4948268;28;20564;-73
2022/12/18 07:55:05;;;;;;;50.90;20.13;;;-6.90;99.90;;;;;;4947611;29;20461;-74
2022/12/18 07:57:32;;;;;;;45.03;18.90;;;-6.80;99.90;;;;;;4946963;29;20540;-73
2022/12/18 07:59:59;;;;;;;50.00;20.40;;;-6.80;99.90;;;;;;4947322;28;20588;-73
2022/12/18 08:02:26;;;;;;;54.93;19.30;;;-6.80;99.90;;;;;;4947234;28;20497;-74
2022/12/18 08:04:52;;;;;;;44.93;18.13;;;-6.80;99.90;;;;;;4947427;29;20542;-73
2022/12/18 08:07:19;;;;;;;50.17;20.43;;;-6.80;99.90;;;;;;4946426;29;20460;-74
2022/12/18 08:09:47;;;;;;;43.47;17.60;;;-6.70;99.90;;;;;;4947009;29;20469;-74
2022/12/18 08:12:14;;;;;;;55.73;20.73;;;-6.70;99.90;;;;;;4956497;28;20498;-75
2022/12/18 08:14:41;;;;;;;47.90;18.17;;;-6.70;99.90;;;;;;4966425;28;20449;-75
2022/12/18 08:17:07;;;;;;;45.87;18.00;;;-6.70;99.90;;;;;;4966377;28;20456;-75
2022/12/18 08:19:34;;;;;;;43.07;17.90;;;-6.70;99.90;;;;;;4966407;28;21103;-75
2022/12/18 08:22:01;;;;;;;50.17;20.40;;;-6.70;99.90;;;;;;4967242;28;20483;-75
2022/12/18 08:24:28;;;;;;;41.80;18.00;;;-6.60;99.90;;;;;;4967091;28;20829;-74
2022/12/18 08:26:57;;;;;;;40.77;17.57;;;-6.60;99.90;;;;;;4966317;28;20460;-74
2022/12/18 08:29:23;;;;;;;43.07;18.90;;;-6.60;99.90;;;;;;4966441;28;20527;-74
2022/12/18 08:31:50;;;;;;;43.67;17.83;;;-6.50;99.90;;;;;;4966406;28;20483;-74
2022/12/18 08:34:17;;;;;;;48.07;18.93;;;-6.40;99.90;;;;;;4966411;28;20460;-74
2022/12/18 08:36:44;;;;;;;43.87;18.80;;;-6.40;99.90;;;;;;4966002;28;20460;-75
2022/12/18 08:39:11;;;;;;;42.90;19.37;;;-6.30;99.90;;;;;;4966564;28;20496;-74
2022/12/18 08:41:37;;;;;;;47.40;19.67;;;-6.30;99.90;;;;;;4966135;28;21008;-74
2022/12/18 08:46:58;;;;;;;42.73;18.27;;;-6.10;99.90;;;;;;4923767;28;20831;-74
2022/12/18 08:49:25;;;;;;;47.50;18.67;;;-6.00;99.90;;;;;;4946229;28;20449;-74
2022/12/18 08:51:56;;;;;;;45.63;21.07;;;-5.90;99.90;;;;;;4947425;28;20481;-74
2022/12/18 08:54:23;;;;;;;49.63;20.53;;;-5.80;99.90;;;;;;4946749;29;20570;-74
2022/12/18 08:56:50;;;;;;;51.80;20.43;;;-5.70;99.90;;;;;;4946580;29;20461;-72
2022/12/18 08:59:19;;;;;;;50.80;21.43;;;-5.60;99.90;;;;;;4947818;29;20533;-73
2022/12/18 09:01:47;;;;;;;54.23;22.80;;;-5.60;99.90;;;;;;4947120;28;21015;-74
2022/12/18 09:04:14;;;;;;;50.70;21.27;;;-5.40;99.90;;;;;;4946808;29;21059;-74
2022/12/18 09:06:41;;;;;;;50.67;21.30;;;-5.40;99.90;;;;;;4946297;28;20453;-73
2022/12/18 09:09:10;;;;;;;47.33;20.60;;;-5.20;99.90;;;;;;4947379;29;20472;-73
2022/12/18 09:11:37;;;;;;;63.20;22.53;;;-5.10;99.90;;;;;;4950089;28;20486;-74
2022/12/18 09:14:04;;;;;;;46.53;20.70;;;-5.10;99.90;;;;;;4951331;29;20488;-74
2022/12/18 09:16:34;;;;;;;42.27;19.93;;;-5.00;99.90;;;;;;4950420;29;20457;-74
2022/12/18 09:19:02;;;;;;;47.22;23.42;;;-4.90;99.90;;;;;;4949980;29;20470;-74
2022/12/18 09:21:32;;;;;;;50.50;22.27;;;-4.40;99.90;;;;;;4950346;28;21017;-74
2022/12/18 09:23:58;;;;;;;47.77;19.67;;;-4.30;99.90;;;;;;4950821;29;20832;-74
2022/12/18 09:26:27;;;;;;;53.20;21.43;;;-4.20;99.90;;;;;;4949883;29;20468;-74
2022/12/18 09:28:55;;;;;;;50.60;20.43;;;-4.10;99.90;;;;;;4950348;29;21017;-76
2022/12/18 09:31:24;;;;;;;52.23;21.33;;;-4.10;99.90;;;;;;4936685;29;20990;-73
2022/12/18 09:33:52;;;;;;;44.83;20.40;;;-4.00;99.90;;;;;;4936496;29;20484;-74
2022/12/18 09:36:19;;;;;;;48.03;19.70;;;-3.90;99.90;;;;;;4949440;29;20457;-73
2022/12/18 09:38:46;;;;;;;42.20;18.10;;;-3.80;99.90;;;;;;4949289;29;20459;-73
2022/12/18 09:41:32;;;;;;;44.17;18.63;;;-3.80;99.90;;;;;;4950509;28;20568;-74
2022/12/18 09:44:03;;;;;;;46.27;19.33;;;-3.70;99.90;;;;;;4949543;29;20463;-73
2022/12/18 09:46:33;;;;;;;46.73;19.47;;;-3.60;99.90;;;;;;4949378;29;20441;-74
2022/12/18 09:49:06;;;;;;;40.60;19.20;;;-3.50;99.90;;;;;;4950763;29;20456;-74
2022/12/18 09:51:40;;;;;;;48.07;20.00;;;-3.40;99.90;;;;;;4950225;28;20484;-73
2022/12/18 09:54:12;;;;;;;44.57;18.93;;;-3.20;99.90;;;;;;4912047;29;20439;-73
2022/12/18 09:56:43;;;;;;;51.53;22.00;;;-3.10;99.90;;;;;;4911373;29;21253;-73
2022/12/18 09:59:21;;;;;;;41.30;18.33;;;-3.00;99.90;;;;;;4911597;29;20469;-73
2022/12/18 10:01:48;;;;;;;39.80;18.13;;;-2.90;99.90;;;;;;4924104;29;21135;-73
2022/12/18 10:04:17;;;;;;;39.27;18.17;;;-2.70;99.90;;;;;;4930873;29;20497;-74
2022/12/18 10:06:47;;;;;;;38.83;17.60;;;-2.50;99.90;;;;;;4930156;29;20458;-73
2022/12/18 10:09:24;;;;;;;37.27;17.17;;;-2.40;99.90;;;;;;4930900;29;20439;-73
2022/12/18 10:12:01;;;;;;;43.83;18.23;;;-2.30;99.90;;;;;;4930369;29;20478;-73
2022/12/18 10:14:35;;;;;;;39.57;18.30;;;-2.20;99.90;;;;;;4930670;29;20454;-76
2022/12/18 10:17:12;;;;;;;40.90;17.30;;;-2.10;99.90;;;;;;4929771;29;20449;-73
2022/12/18 10:19:49;;;;;;;41.47;17.77;;;-2.00;99.90;;;;;;4930505;29;20512;-73
2022/12/18 10:22:38;;;;;;;41.43;18.30;;;-1.80;99.90;;;;;;4929479;29;20990;-73
2022/12/18 10:25:15;;;;;;;39.40;17.57;;;-1.60;99.90;;;;;;4930547;29;20462;-73
2022/12/18 10:27:42;;;;;;;42.13;18.47;;;-1.50;99.90;;;;;;4929405;29;20465;-73
2022/12/18 10:30:15;;;;;;;41.63;20.43;;;-1.20;99.90;;;;;;4929819;29;20462;-73
2022/12/18 10:32:42;;;;;;;41.27;17.70;;;-0.80;99.90;;;;;;4930448;29;20489;-73
2022/12/18 10:35:20;;;;;;;38.03;18.03;;;-0.50;99.90;;;;;;4929881;29;20462;-73
2022/12/18 10:38:08;;;;;;;38.50;18.03;;;-0.30;99.90;;;;;;4929773;29;20443;-72
2022/12/18 10:40:50;;;;;;;44.00;18.60;;;-0.10;99.90;;;;;;4929747;29;21002;-73
2022/12/18 10:43:22;;;;;;;41.60;18.03;;;0.00;99.90;;;;;;4929978;29;20454;-73
2022/12/18 10:46:05;;;;;;;40.90;18.30;;;-0.10;99.90;;;;;;4929218;29;20485;-73
2022/12/18 10:48:34;;;;;;;41.50;18.80;;;0.00;99.90;;;;;;4929255;29;21178;-74
2022/12/18 10:51:03;;;;;;;40.70;18.53;;;0.00;99.90;;;;;;4929716;29;20486;-73
2022/12/18 10:53:32;;;;;;;38.77;17.93;;;0.00;99.90;;;;;;4930396;29;20488;-73
2022/12/18 10:56:02;;;;;;;36.80;17.03;;;0.00;99.90;;;;;;4929620;29;20469;-73
2022/12/18 10:58:32;;;;;;;35.90;15.87;;;0.20;99.90;;;;;;4929163;29;20460;-75
2022/12/18 11:01:20;;;;;;;38.85;18.15;;;0.50;99.90;;;;;;4929043;29;20467;-74
2022/12/18 11:04:00;;;;;;;37.50;18.50;;;0.80;99.90;;;;;;4926533;29;20285;-75
2022/12/18 11:06:28;;;;;;;38.47;16.20;;;1.00;99.90;;;;;;4929164;29;20460;-73
2022/12/18 11:09:01;;;;;;;39.03;18.37;;;1.30;99.90;;;;;;4929774;29;20817;-73
2022/12/18 11:11:28;;;;;;;39.77;16.60;;;1.30;99.90;;;;;;4929443;29;20478;-72
2022/12/18 11:14:03;;;;;;;35.30;16.30;;;1.40;99.90;;;;;;4929613;29;20455;-72
2022/12/18 11:16:34;;;;;;;30.97;16.03;;;1.60;99.90;;;;;;4928366;29;21330;-72
2022/12/18 11:19:22;;;;;;;40.87;16.97;;;1.70;99.90;;;;;;4929514;29;20462;-72
2022/12/18 11:21:50;;;;;;;33.90;16.77;;;1.70;99.90;;;;;;4929493;29;20482;-72
2022/12/18 11:24:23;;;;;;;33.53;16.47;;;1.80;99.90;;;;;;4928965;29;20808;-72
2022/12/18 11:26:51;;;;;;;32.37;15.43;;;2.00;99.90;;;;;;4928839;29;20458;-72
2022/12/18 11:29:23;;;;;;;31.00;16.13;;;2.10;99.90;;;;;;4929127;29;20466;-72
2022/12/18 11:31:50;;;;;;;39.27;19.00;;;2.30;99.90;;;;;;4929648;29;20485;-72
2022/12/18 11:34:23;;;;;;;32.80;15.90;;;2.20;99.90;;;;;;4928981;29;20457;-72
2022/12/18 11:36:52;;;;;;;39.60;17.40;;;2.10;99.90;;;;;;4928110;29;21016;-72
2022/12/18 11:39:25;;;;;;;34.23;16.20;;;2.00;99.90;;;;;;4929257;29;20481;-72
2022/12/18 11:42:11;;;;;;;33.00;16.13;;;2.20;99.90;;;;;;4928840;29;21380;-73
2022/12/18 11:44:43;;;;;;;35.00;16.00;;;2.40;99.90;;;;;;4929149;29;20478;-73
2022/12/18 11:47:22;;;;;;;33.93;15.83;;;2.70;99.90;;;;;;4927813;29;20442;-73
2022/12/18 11:49:50;;;;;;;33.03;17.43;;;2.90;99.90;;;;;;4928688;29;20447;-73
2022/12/18 11:52:24;;;;;;;33.13;16.30;;;3.00;99.90;;;;;;4928411;29;20482;-73
2022/12/18 11:54:53;;;;;;;32.33;16.20;;;3.00;99.90;;;;;;4928920;29;20453;-73
2022/12/18 11:57:33;;;;;;;31.33;15.70;;;2.90;99.90;;;;;;4928344;29;20513;-73
2022/12/18 12:00:12;;;;;;;34.87;16.27;;;2.90;99.90;;;;;;4928946;29;20515;-73
2022/12/18 12:03:08;;;;;;;38.47;17.50;;;2.90;99.90;;;;;;4929360;29;20454;-73
2022/12/18 12:05:50;;;;;;;33.40;16.37;;;3.10;99.90;;;;;;4928933;29;20473;-73
2022/12/18 12:08:25;;;;;;;34.80;16.77;;;3.30;99.90;;;;;;4928678;29;20446;-73
2022/12/18 12:11:03;;;;;;;33.33;16.20;;;3.50;99.90;;;;;;4928603;29;20473;-73
2022/12/18 12:13:42;;;;;;;30.23;14.80;;;3.30;99.90;;;;;;4928405;29;20462;-72
2022/12/18 12:16:16;;;;;;;37.07;17.90;;;3.20;99.90;;;;;;4926595;29;20462;-72
2022/12/18 12:18:56;;;;;;;34.70;16.37;;;3.10;99.90;;;;;;4927801;29;21111;-72
2022/12/18 12:21:28;;;;;;;29.23;16.37;;;3.10;99.90;;;;;;4927558;29;20589;-72
2022/12/18 12:24:04;;;;;;;30.33;17.10;;;3.10;99.90;;;;;;4927340;29;21292;-73
2022/12/18 12:26:36;;;;;;;34.20;16.43;;;3.00;99.90;;;;;;4927019;29;20458;-73
2022/12/18 12:29:14;;;;;;;29.97;16.40;;;2.90;99.90;;;;;;4927153;29;21148;-74
2022/12/18 12:31:56;;;;;;;35.75;19.33;;;3.00;99.90;;;;;;4926872;29;20455;-73
2022/12/18 12:34:27;;;;;;;31.43;15.70;;;3.20;99.90;;;;;;4927636;29;20221;-74
2022/12/18 12:37:16;;;;;;;34.63;16.80;;;3.40;99.90;;;;;;4926557;29;20450;-74
2022/12/18 12:39:47;;;;;;;30.43;16.23;;;3.60;99.90;;;;;;4927358;29;20447;-74
2022/12/18 12:45:14;;;;;;;33.03;15.10;;;3.80;99.90;;;;;;4928226;29;20426;-73
2022/12/18 12:47:45;;;;;;;30.90;18.50;;;3.60;99.90;;;;;;4929381;29;20445;-74
2022/12/18 12:50:17;;;;;;;36.13;17.37;;;3.80;99.90;;;;;;4930961;29;20450;-74
2022/12/18 12:52:48;;;;;;;34.50;17.03;;;3.90;99.90;;;;;;4930992;29;20958;-74
2022/12/18 12:55:20;;;;;;;31.00;15.50;;;3.80;99.90;;;;;;4931147;29;20446;-74
2022/12/18 12:57:54;;;;;;;35.63;17.83;;;3.60;99.90;;;;;;4930919;29;20434;-74
2022/12/18 13:00:21;;;;;;;37.57;17.73;;;3.50;99.90;;;;;;4930909;29;20506;-73
2022/12/18 13:02:52;;;;;;;29.50;15.73;;;3.40;99.90;;;;;;4930663;29;20486;-74
2022/12/18 13:05:25;;;;;;;33.20;16.57;;;3.30;99.90;;;;;;4930819;29;20464;-73
2022/12/18 13:07:55;;;;;;;41.03;21.70;;;3.30;99.90;;;;;;4930383;29;20514;-73
2022/12/18 13:10:37;;;;;;;36.87;19.60;;;3.20;99.90;;;;;;4930435;29;20447;-74
2022/12/18 13:13:06;;;;;;;34.38;18.42;;;3.00;99.90;;;;;;4930967;29;20479;-74
2022/12/18 13:15:38;;;;;;;36.95;20.20;;;3.00;99.90;;;;;;4932715;29;20448;-73
2022/12/18 13:18:13;;;;;;;29.70;17.63;;;3.00;99.90;;;;;;4930775;29;20211;-73
2022/12/18 13:20:42;;;;;;;31.80;16.37;;;3.10;99.90;;;;;;4931286;29;21520;-74
2022/12/18 13:23:31;;;;;;;40.40;19.13;;;2.90;99.90;;;;;;4931529;29;20461;-74
2022/12/18 13:26:20;;;;;;;36.77;17.50;;;2.80;99.90;;;;;;4931203;29;20549;-73
2022/12/18 13:28:54;;;;;;;31.73;16.57;;;2.60;99.90;;;;;;4931227;29;20553;-74
2022/12/18 13:32:07;;;;;;;30.67;16.33;;;2.60;99.90;;;;;;4931408;29;20469;-73
2022/12/18 13:34:34;;;;;;;31.37;15.90;;;2.60;99.90;;;;;;4931827;29;20446;-73
2022/12/18 13:37:38;;;;;;;42.90;21.87;;;2.50;99.90;;;;;;4930587;29;20477;-74
2022/12/18 13:40:56;;;;;;;36.73;17.90;;;2.50;99.90;;;;;;4931621;29;20465;-73
2022/12/18 13:43:29;;;;;;;39.37;19.20;;;2.50;99.90;;;;;;4932295;29;20463;-73
2022/12/18 13:46:17;;;;;;;33.23;17.03;;;2.50;99.90;;;;;;4930547;29;20458;-73
2022/12/18 13:48:51;;;;;;;34.37;16.93;;;2.40;99.90;;;;;;4930886;29;20446;-73
2022/12/18 13:51:21;;;;;;;32.07;17.30;;;2.40;99.90;;;;;;4931052;29;20473;-72
2022/12/18 13:53:50;;;;;;;33.47;17.43;;;2.50;99.90;;;;;;4941881;28;20477;-73
2022/12/18 13:56:18;;;;;;;36.70;19.10;;;2.40;99.90;;;;;;4947293;28;20453;-73
2022/12/18 13:58:46;;;;;;;34.03;17.23;;;2.40;99.90;;;;;;4949585;28;20941;-72
2022/12/18 14:01:31;;;;;;;39.37;19.47;;;2.50;99.90;;;;;;4949821;29;20584;-72
2022/12/18 14:04:11;;;;;;;50.13;21.87;;;2.40;99.90;;;;;;4949815;29;20472;-73
2022/12/18 14:06:38;;;;;;;47.30;20.80;;;2.30;99.90;;;;;;4949500;28;20497;-73
2022/12/18 14:09:04;;;;;;;41.80;20.47;;;2.30;99.90;;;;;;4950207;29;20468;-73
2022/12/18 14:11:31;;;;;;;36.67;18.47;;;2.20;99.90;;;;;;4949899;29;20469;-72
2022/12/18 14:14:00;;;;;;;44.53;24.07;;;2.10;99.90;;;;;;4950250;29;20980;-72
2022/12/18 14:16:27;;;;;;;41.80;20.80;;;2.10;99.90;;;;;;4949343;28;20457;-72
2022/12/18 14:18:57;;;;;;;46.77;21.93;;;2.10;99.90;;;;;;4950284;29;20453;-72
2022/12/18 14:21:27;;;;;;;53.07;22.90;;;2.00;99.90;;;;;;4949746;28;20916;-73
2022/12/18 14:24:14;;;;;;;51.27;24.00;;;2.00;99.90;;;;;;4949911;29;20459;-73
2022/12/18 14:26:41;;;;;;;44.60;20.73;;;1.90;99.90;;;;;;4949464;29;20959;-73
2022/12/18 14:29:28;;;;;;;43.53;19.93;;;1.90;99.90;;;;;;4949997;28;20457;-72
2022/12/18 14:32:11;;;;;;;72.73;28.00;;;2.00;99.90;;;;;;4949785;29;20568;-73
2022/12/18 14:34:38;;;;;;;48.73;22.13;;;2.00;99.90;;;;;;4949995;29;20449;-72
2022/12/18 14:37:06;;;;;;;41.20;20.23;;;1.90;99.90;;;;;;4949313;29;20461;-72
2022/12/18 14:39:33;;;;;;;35.23;17.83;;;1.80;99.90;;;;;;4949257;29;20496;-72
2022/12/18 14:42:00;;;;;;;40.20;18.33;;;1.70;99.90;;;;;;4949354;28;20515;-72
2022/12/18 14:44:29;;;;;;;41.97;20.13;;;1.60;99.90;;;;;;4949381;29;20671;-73
2022/12/18 14:46:56;;;;;;;39.00;17.80;;;1.50;99.90;;;;;;4949081;29;20556;-73
2022/12/18 14:49:27;;;;;;;34.97;18.87;;;1.50;99.90;;;;;;4949686;29;20462;-73
2022/12/18 14:51:56;;;;;;;44.27;19.97;;;1.40;99.90;;;;;;4949417;29;20480;-72
2022/12/18 14:54:24;;;;;;;44.53;19.90;;;1.30;99.90;;;;;;4949750;29;20454;-72
2022/12/18 14:56:57;;;;;;;42.23;21.83;;;1.30;99.90;;;;;;4945761;28;20461;-72
2022/12/18 14:59:25;;;;;;;41.07;18.70;;;1.20;99.90;;;;;;4949141;29;20461;-72
2022/12/18 15:02:00;;;;;;;42.13;20.10;;;1.20;99.90;;;;;;4948984;29;21028;-72
2022/12/18 15:04:29;;;;;;;40.93;21.00;;;1.10;99.90;;;;;;4948705;29;21056;-73
2022/12/18 15:07:10;;;;;;;43.13;22.07;;;1.00;99.90;;;;;;4948335;28;20471;-73
2022/12/18 15:09:38;;;;;;;41.57;20.30;;;0.90;99.90;;;;;;4947273;28;20468;-73
2022/12/18 15:12:06;;;;;;;40.07;18.30;;;0.90;99.90;;;;;;4947818;29;21011;-73
2022/12/18 15:14:35;;;;;;;43.37;20.70;;;0.90;99.90;;;;;;4948845;29;20847;-73
2022/12/18 15:17:07;;;;;;;46.17;22.63;;;0.90;99.90;;;;;;4949518;29;20465;-73
2022/12/18 15:19:39;;;;;;;46.63;22.50;;;0.80;99.90;;;;;;4949228;29;20466;-73
2022/12/18 15:22:14;;;;;;;49.20;24.80;;;0.70;99.90;;;;;;4945642;29;20460;-73
2022/12/18 15:24:40;;;;;;;53.97;24.27;;;0.70;99.90;;;;;;4948767;29;20205;-73
2022/12/18 15:27:31;;;;;;;51.60;25.50;;;0.80;99.90;;;;;;4948139;29;20459;-73
2022/12/18 15:30:18;;;;;;;50.90;23.00;;;0.70;99.90;;;;;;4948584;29;20462;-73
2022/12/18 15:32:48;;;;;;;44.77;22.23;;;0.70;99.90;;;;;;4948833;28;20442;-73
2022/12/18 15:35:17;;;;;;;47.93;21.83;;;0.60;99.90;;;;;;4948604;29;21132;-73
2022/12/18 15:37:44;;;;;;;47.23;21.43;;;0.50;99.90;;;;;;4948169;28;20464;-73
2022/12/18 15:40:14;;;;;;;40.63;20.87;;;0.50;99.90;;;;;;4948512;29;20471;-73
2022/12/18 15:45:25;;;;;;;50.33;23.50;;;0.40;99.90;;;;;;4948319;29;20480;-73
2022/12/18 15:47:53;;;;;;;47.00;21.17;;;0.30;99.90;;;;;;4947352;29;20947;-73
2022/12/18 15:50:20;;;;;;;42.10;19.70;;;0.30;99.90;;;;;;4948345;29;20464;-74
2022/12/18 15:52:50;;;;;;;42.47;19.37;;;0.20;99.90;;;;;;4947716;29;20449;-74
2022/12/18 15:58:03;;;;;;;39.90;19.37;;;0.10;99.90;;;;;;4947218;29;20562;-73
2022/12/18 16:00:30;;;;;;;43.50;19.77;;;0.10;99.90;;;;;;4948149;29;20457;-71
2022/12/18 16:02:58;;;;;;;49.23;22.50;;;0.00;99.90;;;;;;4948393;29;20501;-71
2022/12/18 16:05:26;;;;;;;47.67;21.50;;;0.00;99.90;;;;;;4948680;29;20842;-71
2022/12/18 16:07:53;;;;;;;37.53;19.77;;;0.00;99.90;;;;;;4946831;28;20464;-71
2022/12/18 16:10:20;;;;;;;40.70;18.80;;;-0.10;99.90;;;;;;4947786;29;20459;-71
2022/12/18 16:12:47;;;;;;;44.70;18.83;;;-0.10;99.90;;;;;;4946859;28;20476;-74
2022/12/18 16:15:15;;;;;;;47.67;20.60;;;-0.20;99.90;;;;;;4947367;29;20991;-74
2022/12/18 16:17:42;;;;;;;54.20;26.17;;;-0.20;99.90;;;;;;4946831;29;20457;-74
2022/12/18 16:20:14;;;;;;;62.27;29.10;;;-0.30;99.90;;;;;;4946644;28;20457;-74
2022/12/18 16:22:44;;;;;;;47.07;24.57;;;-0.30;99.90;;;;;;4947570;29;20481;-73
2022/12/18 16:25:23;;;;;;;45.90;22.10;;;-0.30;99.90;;;;;;4947525;28;20457;-74
2022/12/18 16:27:50;;;;;;;45.40;22.50;;;-0.40;99.90;;;;;;4946893;29;20434;-73
2022/12/18 16:30:18;;;;;;;47.30;23.40;;;-0.40;99.90;;;;;;4947805;29;20465;-73
2022/12/18 16:32:45;;;;;;;48.17;22.97;;;-0.40;99.90;;;;;;4947409;28;20461;-74
2022/12/18 16:35:16;;;;;;;52.07;25.30;;;-0.40;99.90;;;;;;4947256;29;20832;-74
2022/12/18 16:37:43;;;;;;;48.90;23.13;;;-0.50;99.90;;;;;;4947046;29;20457;-74
2022/12/18 16:40:12;;;;;;;58.30;27.97;;;-0.50;99.90;;;;;;4947439;29;20478;-73
2022/12/18 16:42:40;;;;;;;48.93;23.63;;;-0.50;99.90;;;;;;4947149;29;20515;-73
2022/12/18 16:45:08;;;;;;;48.50;23.67;;;-0.50;99.90;;;;;;4946874;29;20985;-73
2022/12/18 16:47:35;;;;;;;42.03;22.30;;;-0.50;99.90;;;;;;4946770;29;20466;-73
2022/12/18 16:50:02;;;;;;;45.83;20.23;;;-0.60;99.90;;;;;;4947661;29;20491;-73
2022/12/18 16:52:30;;;;;;;40.30;19.67;;;-0.70;99.90;;;;;;4946996;28;20479;-73
2022/12/18 16:54:57;;;;;;;46.13;21.13;;;-0.70;99.90;;;;;;4947083;29;20833;-72
2022/12/18 16:57:24;;;;;;;47.57;20.40;;;-0.80;99.90;;;;;;4946741;29;20460;-73
2022/12/18 16:59:51;;;;;;;54.17;24.20;;;-0.80;99.90;;;;;;4947208;29;20479;-73
2022/12/18 17:02:20;;;;;;;51.33;22.43;;;-0.90;99.90;;;;;;4946707;29;20508;-73
2022/12/18 17:04:47;;;;;;;52.87;24.13;;;-0.90;99.90;;;;;;4947595;28;20460;-74
2022/12/18 17:07:14;;;;;;;54.10;24.20;;;-0.80;99.90;;;;;;4946736;29;20547;-74
2022/12/18 17:09:43;;;;;;;44.97;23.20;;;-0.80;99.90;;;;;;4947182;29;20450;-72
2022/12/18 17:12:10;;;;;;;48.67;22.23;;;-0.90;99.90;;;;;;4946013;29;20854;-74
2022/12/18 17:14:37;;;;;;;41.80;20.23;;;-0.90;99.90;;;;;;4946871;29;21274;-72
2022/12/18 17:17:04;;;;;;;66.17;28.87;;;-0.90;99.90;;;;;;4955484;28;20452;-73
2022/12/18 17:19:31;;;;;;;69.97;30.20;;;-0.90;99.90;;;;;;4965656;28;20456;-73
2022/12/18 17:21:59;;;;;;;53.83;23.80;;;-0.90;99.90;;;;;;4965345;28;20555;-72
2022/12/18 17:24:25;;;;;;;49.87;22.67;;;-0.90;99.90;;;;;;4965412;28;20455;-73
2022/12/18 17:26:54;;;;;;;49.20;22.17;;;-0.90;99.90;;;;;;4964360;28;20460;-72
2022/12/18 17:29:21;;;;;;;41.13;19.33;;;-0.90;99.90;;;;;;4965056;28;20979;-72
2022/12/18 17:31:48;;;;;;;42.23;20.90;;;-0.90;99.90;;;;;;4966982;28;20465;-71
2022/12/18 17:34:15;;;;;;;48.40;23.20;;;-1.00;99.90;;;;;;4969000;28;20452;-71
2022/12/18 17:36:43;;;;;;;48.23;20.97;;;-1.00;99.90;;;;;;4967994;28;20540;-71
2022/12/18 17:39:18;;;;;;;38.97;19.23;;;-1.00;99.90;;;;;;4968670;28;21035;-73
2022/12/18 17:41:45;;;;;;;46.33;19.97;;;-1.10;99.90;;;;;;4965371;28;21266;-71
2022/12/18 17:44:13;;;;;;;44.97;19.13;;;-1.10;99.90;;;;;;4968269;28;20825;-71
2022/12/18 17:46:40;;;;;;;44.87;19.63;;;-1.20;99.90;;;;;;4967997;28;20462;-72
2022/12/18 17:49:08;;;;;;;43.07;18.70;;;-1.30;99.90;;;;;;4968489;28;21372;-72
2022/12/18 17:51:35;;;;;;;46.03;20.40;;;-1.30;99.90;;;;;;4968981;28;20578;-73
2022/12/18 17:54:01;;;;;;;48.20;20.70;;;-1.40;99.90;;;;;;4968591;28;20452;-74
2022/12/18 17:56:28;;;;;;;45.43;21.77;;;-1.40;99.90;;;;;;4962524;28;20957;-75
2022/12/18 17:58:55;;;;;;;52.43;23.03;;;-1.50;99.90;;;;;;4967758;28;20480;-73